Time;durP1;ratioP1;P1;durP2;ratioP2;P2;SDS_P1;SDS_P2;PMS_P1;PMS_P2;Temp;Humidity;BMP_temperature;BMP_pressure;BME280_temperature;BME280_humidity;BME280_pressure;Samples;Min_cycle;Max_cycle;Signal;HPM_P1;HPM_P2
2021/07/01 00:02:19;;;;;;;3.95;3.22;;;14.50;91.00;;;14.69;70.77;97497.97;5024770;28;20045;-42
2021/07/01 00:04:47;;;;;;;4.13;3.05;;;14.50;91.10;;;14.66;70.86;97500.25;5023081;28;20045;-42
2021/07/01 00:07:15;;;;;;;4.30;3.55;;;14.50;90.90;;;14.67;70.86;97497.34;5023290;28;20049;-42
2021/07/01 00:09:43;;;;;;;4.43;3.40;;;14.60;91.20;;;14.70;70.76;97488.13;5025253;28;20746;-43
2021/07/01 00:12:10;;;;;;;6.10;3.40;;;14.60;91.00;;;14.64;70.96;97494.25;5025123;28;20049;-42
2021/07/01 00:14:38;;;;;;;4.82;3.58;;;14.50;91.10;;;14.71;70.72;97481.72;5025144;28;20240;-42
2021/07/01 00:17:06;;;;;;;5.07;3.47;;;14.60;91.10;;;14.66;70.85;97490.34;5023193;28;20057;-42
2021/07/01 00:19:34;;;;;;;4.65;3.35;;;14.60;90.50;;;14.61;70.85;97495.44;5023505;28;20053;-43
2021/07/01 00:22:03;;;;;;;6.22;3.40;;;14.50;91.20;;;14.62;70.99;97493.56;5024048;28;20065;-42
2021/07/01 00:24:31;;;;;;;3.90;3.22;;;14.50;91.10;;;14.67;70.96;97499.19;5025756;28;20067;-43
2021/07/01 00:26:59;;;;;;;5.28;3.40;;;14.50;91.20;;;14.53;71.03;97495.53;5024745;28;20363;-42
2021/07/01 00:29:27;;;;;;;4.05;2.90;;;14.40;91.00;;;14.50;71.22;97501.25;5025222;28;20064;-42
2021/07/01 00:31:55;;;;;;;4.65;3.42;;;14.40;91.10;;;14.50;71.20;97498.56;5023270;28;20050;-42
2021/07/01 00:34:22;;;;;;;3.38;2.80;;;14.30;91.40;;;14.53;71.20;97503.56;5020836;28;20717;-42
2021/07/01 00:36:51;;;;;;;3.92;2.95;;;14.40;91.10;;;14.54;71.26;97506.06;5008034;28;20059;-42
2021/07/01 00:39:18;;;;;;;3.88;2.83;;;14.50;91.00;;;14.51;71.13;97505.59;5024806;28;20478;-42
2021/07/01 00:41:46;;;;;;;5.55;3.45;;;14.40;90.50;;;14.46;71.17;97502.66;5024284;28;20057;-43
2021/07/01 00:44:14;;;;;;;3.60;2.80;;;14.30;91.30;;;14.43;71.46;97508.41;5024564;28;20045;-42
2021/07/01 00:46:43;;;;;;;3.88;2.75;;;14.30;91.50;;;14.48;71.21;97501.47;5024139;28;20259;-42
2021/07/01 00:49:12;;;;;;;4.65;2.80;;;14.40;91.50;;;14.40;71.40;97501.56;5025413;28;20064;-42
2021/07/01 00:51:40;;;;;;;4.32;2.63;;;14.30;91.00;;;14.39;71.39;97502.59;5023251;28;20037;-43
2021/07/01 00:54:09;;;;;;;4.85;2.45;;;14.30;90.90;;;14.39;71.28;97505.28;5023341;28;20056;-43
2021/07/01 00:56:37;;;;;;;3.22;2.47;;;14.30;91.20;;;14.31;71.29;97503.53;5023655;28;20069;-42
2021/07/01 00:59:07;;;;;;;3.55;2.55;;;14.20;90.80;;;14.35;71.27;97506.66;5023211;28;20259;-42
2021/07/01 01:01:38;;;;;;;4.72;1.98;;;14.20;91.10;;;14.26;71.62;97510.47;5006746;28;20053;-42
2021/07/01 01:04:07;;;;;;;2.67;2.08;;;14.10;91.60;;;14.08;72.05;97506.34;5024028;28;20056;-42
2021/07/01 01:06:38;;;;;;;3.13;2.17;;;14.00;91.80;;;14.31;71.52;97505.41;5008108;28;20068;-42
2021/07/01 01:09:09;;;;;;;3.33;2.10;;;14.10;92.00;;;14.26;71.45;97513.16;5023897;28;20058;-42
2021/07/01 01:11:38;;;;;;;4.60;2.45;;;14.10;91.60;;;14.25;71.59;97519.50;5022584;28;20350;-42
2021/07/01 01:14:10;;;;;;;3.85;2.50;;;14.10;91.90;;;14.16;71.75;97524.16;5023720;28;20053;-42
2021/07/01 01:17:02;;;;;;;3.78;2.58;;;14.10;91.50;;;14.25;71.42;97509.66;5022324;28;20071;-42
2021/07/01 01:19:32;;;;;;;6.13;3.10;;;14.10;91.40;;;14.24;71.27;97512.50;5026343;28;20076;-42
2021/07/01 01:22:00;;;;;;;2.70;1.98;;;14.20;90.70;;;14.13;71.48;97513.81;5009765;28;20049;-42
2021/07/01 01:24:34;;;;;;;3.35;2.33;;;14.10;91.10;;;14.06;71.69;97508.38;5009926;28;20331;-44
2021/07/01 01:27:02;;;;;;;2.85;2.38;;;14.00;90.50;;;14.13;71.39;97506.63;5026434;28;20049;-42
2021/07/01 01:29:30;;;;;;;3.75;2.70;;;14.10;91.00;;;14.11;71.46;97507.81;5028007;28;20053;-42
2021/07/01 01:31:58;;;;;;;3.33;2.97;;;14.10;91.10;;;14.21;71.38;97510.19;5026903;28;20149;-42
2021/07/01 01:34:28;;;;;;;6.63;3.00;;;14.20;90.80;;;14.24;71.26;97504.47;5025031;28;20057;-42
2021/07/01 01:36:56;;;;;;;4.15;2.65;;;14.20;90.80;;;14.13;71.52;97509.31;5025207;28;20397;-42
2021/07/01 01:39:24;;;;;;;7.90;3.13;;;14.20;90.70;;;14.19;71.37;97515.75;5026943;28;20054;-42
2021/07/01 01:42:05;;;;;;;3.55;3.08;;;14.10;90.80;;;14.34;71.24;97508.50;5027206;28;20259;-42
2021/07/01 01:44:35;;;;;;;3.90;2.80;;;14.30;90.80;;;14.34;71.22;97505.81;5026555;28;20053;-42
2021/07/01 01:47:15;;;;;;;4.68;3.45;;;14.30;90.70;;;14.29;71.15;97512.78;5010617;28;20057;-44
2021/07/01 01:49:50;;;;;;;4.15;3.17;;;14.20;90.20;;;14.31;71.17;97508.91;5028032;28;20238;-42
2021/07/01 01:52:19;;;;;;;3.78;2.80;;;14.20;91.00;;;14.26;71.49;97511.28;5027285;28;20060;-42
2021/07/01 01:54:48;;;;;;;3.75;2.78;;;14.20;90.60;;;14.28;71.25;97509.25;5027459;28;20246;-42
2021/07/01 01:57:16;;;;;;;4.80;3.15;;;14.20;90.60;;;14.28;71.25;97503.91;5025532;28;20053;-43
2021/07/01 02:00:18;;;;;;;3.63;2.70;;;14.20;90.60;;;14.34;70.97;97508.50;5030327;28;20053;-43
2021/07/01 02:03:00;;;;;;;3.30;2.40;;;14.20;90.60;;;14.28;71.17;97519.16;5028550;28;20063;-41
2021/07/01 02:05:43;;;;;;;3.67;2.60;;;14.20;90.50;;;14.20;71.29;97506.69;5025834;28;20053;-41
2021/07/01 02:08:12;;;;;;;7.10;2.85;;;14.10;91.10;;;14.17;71.39;97505.22;5025479;28;20049;-41
2021/07/01 02:10:40;;;;;;;3.65;2.60;;;14.10;91.30;;;14.25;71.29;97509.66;5008887;28;20064;-43
2021/07/01 02:13:10;;;;;;;3.20;2.42;;;14.10;91.10;;;14.32;71.16;97510.53;5027679;28;20554;-41
2021/07/01 02:15:57;;;;;;;3.50;2.30;;;14.30;90.60;;;14.25;71.26;97511.47;5028014;28;20377;-42
2021/07/01 02:18:25;;;;;;;3.67;2.63;;;14.20;90.50;;;14.25;71.14;97503.44;5026528;28;20254;-42
2021/07/01 02:20:53;;;;;;;4.38;2.97;;;14.20;90.30;;;14.22;71.27;97510.00;5025454;28;20063;-42
2021/07/01 02:23:21;;;;;;;3.30;2.70;;;14.20;90.40;;;14.30;71.09;97506.41;5024557;28;20060;-43
2021/07/01 02:25:49;;;;;;;2.83;2.42;;;14.30;90.60;;;14.20;71.29;97514.72;5007309;28;20063;-41
2021/07/01 02:28:19;;;;;;;4.18;2.70;;;14.20;89.90;;;14.21;71.27;97512.88;5024638;28;20056;-42
2021/07/01 02:31:16;;;;;;;4.30;2.80;;;14.20;90.40;;;14.27;71.12;97520.16;4956285;28;20069;-41
2021/07/01 02:33:44;;;;;;;4.35;2.90;;;14.20;90.30;;;14.37;71.20;97524.19;5026144;28;20052;-41
2021/07/01 02:36:12;;;;;;;3.67;2.78;;;14.30;90.10;;;14.45;70.85;97515.22;5025633;28;20065;-41
2021/07/01 02:38:59;;;;;;;4.35;2.90;;;14.40;89.80;;;14.43;70.95;97522.63;5024570;28;20063;-42
2021/07/01 02:41:27;;;;;;;3.47;2.40;;;14.40;89.70;;;14.43;70.83;97522.63;5008732;28;20292;-43
2021/07/01 02:43:57;;;;;;;5.32;3.25;;;14.30;90.00;;;14.43;70.89;97522.63;5026457;28;20063;-42
2021/07/01 02:46:45;;;;;;;4.63;3.17;;;14.30;90.30;;;14.41;70.96;97526.50;5028836;28;20051;-43
2021/07/01 02:49:20;;;;;;;5.25;2.92;;;14.30;90.30;;;14.40;71.00;97522.97;5022173;28;20058;-42
2021/07/01 02:51:55;;;;;;;6.05;2.38;;;14.30;90.50;;;14.42;70.92;97531.66;5007690;28;20057;-43
2021/07/01 02:54:23;;;;;;;3.65;2.38;;;14.30;90.70;;;14.39;70.93;97526.69;5025390;28;20057;-41
2021/07/01 02:56:52;;;;;;;5.30;3.05;;;14.30;90.70;;;14.40;70.98;97540.91;5026281;28;20053;-42
2021/07/01 02:59:22;;;;;;;5.88;2.95;;;14.30;90.60;;;14.44;70.94;97526.13;5026018;28;20057;-41
2021/07/01 03:02:13;;;;;;;3.65;2.60;;;14.30;90.70;;;14.22;71.53;97534.09;5007077;28;20061;-42
2021/07/01 03:04:56;;;;;;;4.38;3.17;;;14.10;90.40;;;14.23;71.45;97532.25;5009947;28;20053;-42
2021/07/01 03:07:27;;;;;;;3.85;2.53;;;14.10;91.30;;;14.22;71.44;97539.47;5009636;28;20239;-41
2021/07/01 03:09:54;;;;;;;4.00;2.50;;;14.10;91.20;;;14.24;71.21;97532.06;5026597;28;20053;-41
2021/07/01 03:12:23;;;;;;;4.07;2.58;;;14.10;91.50;;;14.32;71.29;97523.94;5024463;28;20057;-41
2021/07/01 03:14:52;;;;;;;3.20;2.90;;;14.20;90.90;;;14.21;71.63;97531.63;5025338;28;20065;-42
2021/07/01 03:17:20;;;;;;;5.40;3.45;;;14.20;90.30;;;14.23;71.58;97527.75;5007149;28;20264;-42
2021/07/01 03:19:48;;;;;;;4.93;2.97;;;14.10;90.90;;;14.30;71.36;97533.16;5024814;28;20065;-42
2021/07/01 03:22:36;;;;;;;3.47;2.60;;;14.20;91.10;;;14.29;71.31;97532.34;5013462;28;20058;-41
2021/07/01 03:25:05;;;;;;;3.47;2.65;;;14.20;91.30;;;14.36;71.51;97522.56;5007887;28;20054;-41
2021/07/01 03:27:33;;;;;;;5.38;2.58;;;14.30;91.00;;;14.41;71.26;97521.97;5024781;28;20045;-42
2021/07/01 03:30:04;;;;;;;3.30;2.20;;;14.40;90.60;;;14.48;71.26;97516.69;5025083;28;20041;-42
2021/07/01 03:32:33;;;;;;;5.25;2.30;;;14.50;90.50;;;14.46;71.17;97519.56;5024125;28;20055;-42
2021/07/01 03:35:02;;;;;;;3.92;2.53;;;14.50;90.00;;;14.45;71.03;97519.75;5023844;28;20049;-42
2021/07/01 03:37:48;;;;;;;3.78;2.28;;;14.40;90.00;;;14.45;70.94;97520.59;5029297;28;20048;-42
2021/07/01 03:40:31;;;;;;;3.22;2.50;;;14.40;90.20;;;14.48;71.06;97527.41;5006072;28;20072;-42
2021/07/01 03:42:59;;;;;;;3.60;2.67;;;14.40;90.20;;;14.49;70.90;97523.72;5024496;28;20053;-41
2021/07/01 03:45:27;;;;;;;2.97;2.42;;;14.40;90.10;;;14.55;71.33;97533.66;5024366;28;20347;-41
2021/07/01 03:47:55;;;;;;;4.70;2.72;;;14.50;90.00;;;14.55;70.92;97529.13;5024866;28;20489;-41
2021/07/01 03:50:23;;;;;;;3.53;2.60;;;14.50;89.90;;;14.58;70.94;97533.34;5007935;28;20061;-42
2021/07/01 03:53:16;;;;;;;3.33;2.45;;;14.50;89.70;;;14.60;70.78;97527.75;5007248;28;20072;-43
2021/07/01 03:55:44;;;;;;;4.70;2.88;;;14.50;89.90;;;14.56;70.71;97528.16;5025527;28;20059;-42
2021/07/01 03:58:12;;;;;;;3.58;2.28;;;14.50;89.60;;;14.59;70.55;97528.81;5008180;28;20335;-41
2021/07/01 04:00:42;;;;;;;3.40;2.38;;;14.50;90.00;;;14.60;70.71;97533.97;5024111;28;20057;-42
2021/07/01 04:03:10;;;;;;;5.50;3.03;;;14.50;89.70;;;14.65;70.45;97533.41;5024017;28;20052;-42
2021/07/01 04:06:03;;;;;;;3.58;2.92;;;14.50;89.60;;;14.67;70.66;97539.41;5007988;28;20059;-41
2021/07/01 04:08:31;;;;;;;3.78;2.80;;;14.60;89.70;;;14.72;70.59;97539.66;5021924;28;20057;-41
2021/07/01 04:10:59;;;;;;;4.28;2.58;;;14.60;89.70;;;14.74;70.52;97535.75;5005737;28;20256;-43
2021/07/01 04:13:28;;;;;;;3.70;2.72;;;14.60;89.50;;;14.74;70.49;97537.63;5023334;28;20049;-42
2021/07/01 04:16:25;;;;;;;4.28;2.28;;;14.60;89.60;;;14.75;70.35;97542.78;5016764;28;20068;-41
2021/07/01 04:19:13;;;;;;;4.57;3.22;;;14.60;89.40;;;14.71;70.36;97546.03;5031645;28;20386;-44
2021/07/01 04:22:00;;;;;;;4.72;3.13;;;14.50;89.90;;;14.70;70.42;97545.22;5026330;28;20052;-42
2021/07/01 04:24:46;;;;;;;3.28;2.63;;;14.50;89.70;;;14.65;70.33;97552.97;5026309;28;20048;-43
2021/07/01 04:27:27;;;;;;;3.35;2.40;;;14.50;89.80;;;14.71;70.46;97554.06;5024548;28;20075;-42
2021/07/01 04:29:54;;;;;;;4.30;2.88;;;14.60;89.80;;;14.70;70.48;97557.78;5007617;28;20654;-42
2021/07/01 04:32:25;;;;;;;3.25;2.75;;;14.50;89.80;;;14.71;70.41;97552.25;5011464;23;20050;-40
2021/07/01 04:34:54;;;;;;;3.60;3.10;;;14.60;89.50;;;14.70;70.40;97563.97;5006311;28;20049;-40
2021/07/01 04:37:22;;;;;;;3.40;2.47;;;14.60;88.80;;;14.72;70.06;97558.41;5019998;28;20168;-40
2021/07/01 04:39:52;;;;;;;4.20;2.78;;;14.60;89.40;;;14.72;70.19;97550.38;5005161;28;20061;-40
2021/07/01 04:42:39;;;;;;;7.55;2.97;;;14.60;89.00;;;14.75;70.21;97550.84;5004448;28;20048;-40
2021/07/01 04:45:09;;;;;;;3.28;2.40;;;14.70;89.00;;;14.71;70.07;97551.38;5021562;28;20364;-40
2021/07/01 04:47:37;;;;;;;4.00;2.70;;;14.60;88.90;;;14.61;70.37;97551.69;5004649;28;20060;-40
2021/07/01 04:50:07;;;;;;;2.70;1.90;;;14.50;89.10;;;14.53;70.60;97549.94;5003499;28;20050;-40
2021/07/01 04:52:41;;;;;;;2.63;2.03;;;14.50;89.20;;;14.46;70.77;97545.50;5013098;28;20041;-40
2021/07/01 04:55:27;;;;;;;2.75;2.30;;;14.30;89.70;;;14.53;70.65;97544.56;5011080;28;20238;-40
2021/07/01 04:58:04;;;;;;;2.92;2.38;;;14.40;89.90;;;14.44;70.75;97556.41;5010782;28;20347;-40
2021/07/01 05:00:36;;;;;;;2.90;2.20;;;14.30;90.10;;;14.49;70.83;97550.50;5022586;28;20049;-40
2021/07/01 05:03:27;;;;;;;5.15;1.95;;;14.40;90.20;;;14.60;70.76;97555.41;5007893;28;20071;-40
2021/07/01 05:05:55;;;;;;;2.30;1.85;;;14.50;90.10;;;14.67;70.74;97556.28;5008567;28;20367;-40
2021/07/01 05:08:23;;;;;;;2.97;1.73;;;14.70;89.70;;;14.69;70.74;97553.44;5023371;28;20064;-40
2021/07/01 05:10:54;;;;;;;4.47;2.42;;;14.70;89.20;;;14.71;70.56;97559.44;5006879;28;20045;-40
2021/07/01 05:13:23;;;;;;;3.65;2.22;;;14.60;89.60;;;14.73;70.54;97565.41;5023454;28;20057;-40
2021/07/01 05:15:51;;;;;;;2.65;1.77;;;14.70;89.40;;;14.74;70.70;97559.88;5007804;28;20050;-40
2021/07/01 05:18:19;;;;;;;4.53;2.20;;;14.80;89.30;;;14.72;70.70;97556.56;5023578;28;20056;-40
2021/07/01 05:21:14;;;;;;;2.75;1.75;;;14.70;89.20;;;14.75;70.82;97558.03;5024661;28;20243;-39
2021/07/01 05:24:01;;;;;;;3.45;2.40;;;14.60;89.70;;;14.74;70.58;97562.56;5012648;28;20052;-39
2021/07/01 05:26:47;;;;;;;3.20;1.95;;;14.70;90.20;;;14.71;70.59;97562.09;5011718;28;20049;-40
2021/07/01 05:29:33;;;;;;;3.58;2.45;;;14.60;90.00;;;14.67;70.77;97552.78;5008285;28;20223;-40
2021/07/01 05:32:40;;;;;;;2.85;2.20;;;14.50;90.20;;;14.64;70.80;97556.69;5008361;28;20445;-40
2021/07/01 05:35:26;;;;;;;7.45;2.40;;;14.50;90.60;;;14.53;71.25;97562.50;5009029;28;20042;-40
2021/07/01 05:37:56;;;;;;;4.47;2.30;;;14.40;90.80;;;14.54;71.03;97558.81;5007146;28;20109;-40
2021/07/01 05:40:27;;;;;;;3.58;2.33;;;14.40;90.80;;;14.53;71.18;97560.63;5008589;28;20386;-40
2021/07/01 05:42:57;;;;;;;3.22;2.30;;;14.50;90.40;;;14.37;71.42;97563.56;5026415;28;20050;-40
2021/07/01 05:45:25;;;;;;;2.70;2.03;;;14.40;90.20;;;14.47;71.17;97563.25;5042360;28;20061;-40
2021/07/01 05:47:53;;;;;;;3.13;1.83;;;14.40;90.10;;;14.36;71.23;97565.41;5026988;28;20057;-39
2021/07/01 05:50:22;;;;;;;3.17;2.33;;;14.30;90.20;;;14.40;71.21;97568.50;5027095;28;20351;-39
2021/07/01 05:52:54;;;;;;;4.07;2.38;;;14.30;90.50;;;14.29;71.55;97566.34;5027009;28;20064;-39
2021/07/01 05:55:22;;;;;;;4.70;2.90;;;14.20;90.40;;;14.45;71.25;97567.97;5029344;28;20049;-39
2021/07/01 05:57:50;;;;;;;3.55;2.60;;;14.40;90.80;;;14.44;71.44;97564.44;5028151;28;20270;-39
2021/07/01 06:00:19;;;;;;;2.97;2.60;;;14.40;90.70;;;14.41;71.44;97570.19;5025472;28;20041;-40
2021/07/01 06:02:49;;;;;;;5.43;2.97;;;14.30;90.60;;;14.36;71.44;97570.75;5026436;28;20173;-40
2021/07/01 06:05:17;;;;;;;3.50;2.58;;;14.30;90.90;;;14.41;71.50;97577.41;5027633;28;20053;-40
2021/07/01 06:08:07;;;;;;;3.45;2.85;;;14.40;91.00;;;14.45;71.64;97573.31;5029326;28;20052;-40
2021/07/01 06:10:42;;;;;;;3.72;3.03;;;14.40;90.60;;;14.50;71.51;97582.47;5026155;28;20045;-40
2021/07/01 06:13:11;;;;;;;3.70;2.83;;;14.50;90.50;;;14.54;71.40;97577.56;5026637;28;20354;-40
2021/07/01 06:15:39;;;;;;;3.60;2.63;;;14.50;90.40;;;14.60;71.19;97582.19;5027157;28;20038;-40
2021/07/01 06:18:07;;;;;;;3.55;2.72;;;14.60;90.20;;;14.63;71.17;97584.47;5026015;28;20238;-40
2021/07/01 06:20:35;;;;;;;4.25;2.90;;;14.60;89.80;;;14.72;71.19;97590.56;5026717;28;20049;-40
2021/07/01 06:23:03;;;;;;;3.17;2.83;;;14.70;89.80;;;14.66;71.02;97581.44;5026269;28;20048;-40
2021/07/01 06:25:31;;;;;;;4.70;2.80;;;14.70;89.10;;;14.75;70.90;97587.50;5026688;28;20366;-40
2021/07/01 06:28:00;;;;;;;8.02;3.42;;;14.70;89.40;;;14.83;71.05;97578.50;5026680;28;20050;-40
2021/07/01 06:30:30;;;;;;;3.83;2.70;;;14.80;89.40;;;14.84;70.65;97578.34;5024771;28;20057;-40
2021/07/01 06:32:58;;;;;;;4.13;3.03;;;14.90;88.90;;;14.90;70.60;97590.97;5027506;28;20395;-40
2021/07/01 06:35:26;;;;;;;3.83;2.53;;;14.90;88.70;;;14.94;70.37;97589.56;5024107;28;20370;-40
2021/07/01 06:38:11;;;;;;;4.25;2.95;;;15.00;88.20;;;14.95;70.29;97590.41;5041195;28;20049;-40
2021/07/01 06:41:02;;;;;;;4.07;3.05;;;15.00;88.60;;;15.03;70.38;97587.59;5014654;28;20067;-39
2021/07/01 06:43:50;;;;;;;4.03;2.88;;;15.10;88.10;;;15.08;70.18;97582.50;5030151;28;20056;-39
2021/07/01 06:46:38;;;;;;;3.45;2.75;;;15.10;88.20;;;15.11;70.19;97592.84;5027078;28;20048;-40
2021/07/01 06:49:47;;;;;;;3.83;2.72;;;15.10;88.30;;;15.10;69.84;97593.88;5024785;28;20071;-39
2021/07/01 06:52:35;;;;;;;6.63;2.88;;;15.10;87.80;;;15.06;69.95;97597.09;5009471;28;20057;-39
2021/07/01 06:55:24;;;;;;;5.15;2.28;;;15.00;87.60;;;15.08;69.83;97600.44;5028163;28;20099;-39
2021/07/01 06:58:16;;;;;;;3.35;2.58;;;15.00;88.00;;;15.01;69.59;97607.59;5026598;28;20373;-39
2021/07/01 07:00:45;;;;;;;4.30;2.60;;;15.00;86.50;;;15.07;69.65;97612.19;5024301;28;20351;-40
2021/07/01 07:03:18;;;;;;;8.00;2.22;;;15.00;87.50;;;14.93;69.29;97617.41;5024082;28;20232;-39
2021/07/01 07:05:53;;;;;;;3.85;2.55;;;15.00;86.70;;;14.77;69.56;97618.47;5025526;28;20053;-38
2021/07/01 07:08:22;;;;;;;3.53;2.65;;;14.90;86.70;;;14.96;69.63;97611.66;5023733;28;20049;-38
2021/07/01 07:10:50;;;;;;;2.78;2.13;;;14.90;87.80;;;14.88;69.84;97610.94;5025987;28;20061;-40
2021/07/01 07:13:24;;;;;;;3.67;2.70;;;14.80;87.60;;;14.93;69.80;97620.09;5025321;28;20049;-39
2021/07/01 07:15:55;;;;;;;2.80;2.22;;;14.90;87.80;;;15.08;69.95;97620.03;5026510;28;20047;-39
2021/07/01 07:18:30;;;;;;;3.10;2.60;;;15.10;87.90;;;15.18;69.66;97616.19;5024179;28;20054;-39
2021/07/01 07:21:03;;;;;;;3.55;2.60;;;15.20;87.40;;;15.17;69.39;97618.06;5000372;28;20049;-39
2021/07/01 07:23:35;;;;;;;7.60;2.63;;;15.20;87.10;;;15.21;69.24;97623.88;5001860;28;20054;-39
2021/07/01 07:26:24;;;;;;;3.63;2.40;;;15.30;87.30;;;15.15;69.05;97630.81;5005366;28;20080;-39
2021/07/01 07:28:56;;;;;;;3.25;2.72;;;15.30;85.90;;;15.02;69.31;97620.78;5005700;28;20058;-39
2021/07/01 07:31:33;;;;;;;4.15;2.20;;;15.10;86.30;;;14.75;69.04;97625.00;5004561;28;20058;-39
2021/07/01 07:34:05;;;;;;;3.05;2.47;;;14.90;85.50;;;14.81;69.67;97626.97;5004983;28;20275;-39
2021/07/01 07:36:34;;;;;;;3.10;2.45;;;14.80;87.50;;;14.71;69.96;97629.09;5005848;28;20343;-39
2021/07/01 07:39:07;;;;;;;4.13;2.45;;;14.70;87.70;;;14.75;69.97;97622.34;5004915;28;20054;-39
2021/07/01 07:41:36;;;;;;;4.35;2.55;;;14.80;88.10;;;14.81;70.12;97631.47;5004359;28;20046;-39
2021/07/01 07:44:05;;;;;;;3.60;2.47;;;14.80;88.30;;;14.86;69.79;97623.72;5004613;28;20059;-39
2021/07/01 07:46:34;;;;;;;4.30;2.83;;;14.90;88.00;;;14.92;69.47;97631.81;5003753;28;20053;-39
2021/07/01 07:49:02;;;;;;;4.03;2.70;;;15.10;86.30;;;14.97;69.59;97615.19;5005274;28;20046;-39
2021/07/01 07:51:33;;;;;;;3.15;2.50;;;15.10;86.70;;;15.11;69.56;97621.50;5004150;28;20254;-39
2021/07/01 07:54:05;;;;;;;3.50;2.15;;;15.20;86.60;;;15.20;69.49;97619.50;5003950;28;20056;-39
2021/07/01 07:56:36;;;;;;;4.60;2.88;;;15.30;86.80;;;15.27;69.47;97621.25;5003664;28;20045;-39
2021/07/01 07:59:10;;;;;;;3.42;2.90;;;15.50;86.40;;;15.05;69.47;97617.72;5004538;28;20053;-39
2021/07/01 08:01:39;;;;;;;;;;;15.20;86.10;;;15.10;69.55;97614.47;5014011;28;20048;-38
2021/07/01 08:04:12;;;;;;;3.67;3.08;;;15.20;87.20;;;15.26;69.52;97624.97;5020274;28;19924;-38
2021/07/01 08:06:43;;;;;;;4.75;3.00;;;15.30;87.60;;;15.11;69.83;97618.81;5023310;28;20059;-38
2021/07/01 08:09:14;;;;;;;6.75;3.58;;;15.20;87.30;;;15.18;69.94;97624.25;5018729;28;20217;-39
2021/07/01 08:11:43;;;;;;;5.55;3.17;;;15.20;88.30;;;15.01;70.77;97626.34;5021164;28;20056;-39
2021/07/01 08:14:14;;;;;;;4.82;3.35;;;15.00;89.50;;;14.91;71.66;97624.81;5021084;28;20049;-38
2021/07/01 08:16:46;;;;;;;5.50;3.25;;;14.90;90.70;;;15.01;71.74;97626.34;5020413;28;20384;-38
2021/07/01 08:19:14;;;;;;;4.93;3.20;;;15.00;91.50;;;15.00;71.62;97627.38;5047659;28;20053;-39
2021/07/01 08:21:47;;;;;;;5.70;3.22;;;15.00;91.30;;;15.03;71.87;97622.47;5033204;28;20064;-39
2021/07/01 08:24:16;;;;;;;5.80;2.78;;;15.00;91.50;;;15.12;71.48;97624.00;5021274;28;20045;-39
2021/07/01 08:26:44;;;;;;;5.22;3.40;;;15.10;91.20;;;15.14;71.45;97621.09;5025167;28;20243;-39
2021/07/01 08:29:14;;;;;;;4.65;3.50;;;15.10;90.80;;;15.18;70.99;97614.38;5015819;28;20060;-40
2021/07/01 08:31:46;;;;;;;5.18;3.28;;;15.20;90.10;;;15.29;70.81;97613.84;5008541;28;20080;-40
2021/07/01 08:34:20;;;;;;;4.28;3.13;;;15.40;89.90;;;15.27;70.74;97623.94;5009838;28;20060;-40
2021/07/01 08:36:49;;;;;;;4.40;3.35;;;15.40;88.60;;;15.28;70.66;97616.72;5010333;28;20054;-40
2021/07/01 08:39:20;;;;;;;4.40;3.22;;;15.40;88.10;;;15.42;70.81;97610.47;5006220;28;20041;-40
2021/07/01 08:42:00;;;;;;;7.13;3.65;;;15.60;89.10;;;15.44;70.57;97610.28;5008446;28;20061;-40
2021/07/01 08:44:44;;;;;;;3.95;2.92;;;15.70;87.60;;;15.63;70.62;97620.34;5010587;28;20058;-40
2021/07/01 08:47:20;;;;;;;5.63;3.90;;;15.90;87.80;;;15.68;70.25;97617.06;5021691;28;20359;-40
2021/07/01 08:49:57;;;;;;;6.95;2.50;;;15.90;87.40;;;15.60;68.76;97623.41;5023372;28;20044;-39
2021/07/01 08:52:29;;;;;;;4.25;3.10;;;15.90;86.10;;;15.33;69.06;97617.81;5024033;28;20064;-40
2021/07/01 08:55:06;;;;;;;4.50;2.80;;;15.50;85.10;;;15.48;68.87;97616.91;5011669;28;20675;-40
2021/07/01 08:57:36;;;;;;;3.60;2.85;;;15.60;85.40;;;15.56;69.26;97620.25;5008888;28;20057;-40
2021/07/01 09:00:14;;;;;;;3.05;2.75;;;15.70;85.90;;;15.64;68.91;97629.22;5024945;28;20058;-40
2021/07/01 09:03:06;;;;;;;3.80;3.05;;;15.80;85.70;;;15.32;69.17;97628.72;5007715;28;20064;-40
2021/07/01 09:05:37;;;;;;;3.83;3.10;;;15.50;85.50;;;15.45;69.20;97625.31;5009064;28;20063;-40
2021/07/01 09:08:10;;;;;;;3.75;2.85;;;15.50;86.70;;;15.56;69.17;97625.63;5005427;28;20048;-40
2021/07/01 09:10:51;;;;;;;4.18;2.60;;;15.70;86.50;;;15.50;68.59;97623.72;5005264;28;20060;-41
2021/07/01 09:13:23;;;;;;;4.20;3.15;;;15.70;85.30;;;15.58;68.82;97636.19;4987471;28;20058;-41
2021/07/01 09:15:51;;;;;;;4.68;3.70;;;15.60;85.20;;;15.49;68.77;97634.66;4995967;28;20351;-41
2021/07/01 09:18:22;;;;;;;5.43;3.25;;;15.60;85.30;;;15.58;68.78;97633.50;5007603;28;20057;-41
2021/07/01 09:20:51;;;;;;;4.93;3.42;;;15.70;86.10;;;15.72;68.76;97621.88;5005378;28;20053;-41
2021/07/01 09:23:22;;;;;;;4.95;3.83;;;15.80;86.20;;;15.65;68.70;97623.66;5006370;28;20042;-41
2021/07/01 09:25:55;;;;;;;4.22;3.53;;;15.80;84.50;;;15.88;68.53;97638.75;5008650;28;20340;-41
2021/07/01 09:28:23;;;;;;;3.30;3.00;;;16.00;85.60;;;16.00;68.48;97633.66;5007223;28;20058;-41
2021/07/01 09:30:54;;;;;;;5.85;3.55;;;16.20;85.20;;;16.00;68.51;97633.66;5007881;28;20042;-41
2021/07/01 09:33:23;;;;;;;3.65;3.17;;;16.30;84.40;;;16.03;68.35;97631.41;5005741;28;20050;-41
2021/07/01 09:35:52;;;;;;;5.57;3.00;;;16.30;84.50;;;16.13;68.05;97626.50;5005198;28;20225;-41
2021/07/01 09:38:21;;;;;;;4.70;3.05;;;16.40;83.60;;;16.06;67.36;97636.38;5007928;28;20385;-41
2021/07/01 09:40:49;;;;;;;3.97;3.22;;;16.30;83.20;;;16.09;67.40;97633.31;5007972;28;20061;-41
2021/07/01 09:43:22;;;;;;;4.53;2.85;;;16.30;83.20;;;16.03;67.63;97634.09;5005523;28;20050;-41
2021/07/01 09:45:51;;;;;;;4.32;2.88;;;16.20;83.70;;;15.91;67.54;97638.31;5008198;28;20062;-41
2021/07/01 09:48:25;;;;;;;4.45;3.28;;;16.10;83.50;;;16.01;67.95;97641.50;5006900;28;20338;-41
2021/07/01 09:50:54;;;;;;;3.80;3.38;;;16.20;84.70;;;15.93;68.11;97650.53;5006284;28;20052;-41
2021/07/01 09:53:32;;;;;;;4.95;3.75;;;16.00;85.10;;;16.04;67.83;97648.34;5007032;28;20747;-41
2021/07/01 09:56:07;;;;;;;3.83;3.22;;;16.10;84.70;;;16.12;68.22;97650.88;5006719;28;20064;-41
2021/07/01 09:58:50;;;;;;;3.20;2.90;;;16.30;85.10;;;15.82;68.10;97655.59;5005341;28;20201;-41
2021/07/01 10:01:37;;;;;;;4.68;3.03;;;16.00;84.10;;;15.94;67.95;97646.00;5006309;28;20069;-41
2021/07/01 10:04:07;;;;;;;4.47;3.25;;;16.00;85.30;;;15.99;68.11;97656.97;5007606;28;20393;-41
2021/07/01 10:06:36;;;;;;;3.08;2.10;;;16.00;85.60;;;15.64;69.42;97656.88;5007956;28;20049;-41
2021/07/01 10:09:06;;;;;;;3.85;2.53;;;15.70;87.20;;;15.52;70.13;97658.41;5006755;28;20543;-41
2021/07/01 10:11:42;;;;;;;2.13;1.77;;;15.40;88.60;;;15.55;69.92;97663.41;5007195;28;20054;-41
2021/07/01 10:14:15;;;;;;;2.53;2.20;;;15.50;88.90;;;15.62;69.60;97658.91;5007469;28;20060;-40
2021/07/01 10:16:43;;;;;;;3.70;2.13;;;15.60;89.80;;;15.39;69.34;97655.59;5008320;28;20084;-40
2021/07/01 10:19:21;;;;;;;4.03;2.97;;;15.40;87.30;;;15.29;68.97;97658.59;5007634;28;20056;-39
2021/07/01 10:22:04;;;;;;;4.45;2.67;;;15.40;86.30;;;15.14;67.79;97654.13;5007176;28;20054;-39
2021/07/01 10:24:37;;;;;;;4.40;2.53;;;15.30;84.10;;;15.36;68.08;97656.81;5005641;28;20057;-40
2021/07/01 10:27:06;;;;;;;4.38;3.13;;;15.50;85.00;;;15.51;67.99;97660.28;5006890;28;20052;-40
2021/07/01 10:29:39;;;;;;;4.28;2.88;;;15.60;84.30;;;15.50;68.01;97652.41;5008176;28;20390;-40
2021/07/01 10:32:09;;;;;;;3.10;2.67;;;15.60;84.70;;;15.50;67.53;97658.59;5008863;28;20060;-40
2021/07/01 10:34:50;;;;;;;3.65;2.72;;;15.80;83.10;;;15.70;67.46;97666.00;5007432;28;20057;-40
2021/07/01 10:37:21;;;;;;;3.25;2.80;;;16.00;83.20;;;15.67;67.34;97664.53;5006629;28;20149;-40
2021/07/01 10:39:51;;;;;;;4.70;2.70;;;15.90;83.20;;;15.57;66.34;97658.69;5006439;28;20056;-40
2021/07/01 10:42:20;;;;;;;4.78;2.60;;;15.90;80.80;;;15.49;66.57;97664.16;5005674;28;20062;-40
2021/07/01 10:44:48;;;;;;;3.95;3.10;;;15.80;81.80;;;15.57;66.69;97666.72;5006249;28;20057;-40
2021/07/01 10:47:42;;;;;;;3.60;2.95;;;15.80;81.30;;;15.49;66.15;97666.84;5006453;28;20059;-40